createdAt,value
2018-08-18T00:08:09.753Z,100658.70
2018-08-18T00:18:13.162Z,100648.80
2018-08-18T00:28:17.733Z,100654.95
2018-08-18T00:38:21.576Z,100613.35
2018-08-18T00:48:24.633Z,100583.27
2018-08-18T00:58:30.792Z,100568.03
2018-08-18T01:08:33.281Z,100590.14
2018-08-18T01:18:35.761Z,100578.88
2018-08-18T01:28:38.304Z,100559.99
2018-08-18T01:38:42.574Z,100554.70
2018-08-18T01:48:46.173Z,100590.52
2018-08-18T01:58:49.461Z,100602.02
2018-08-18T02:08:57.677Z,100616.72
2018-08-18T02:19:00.257Z,100618.09
2018-08-18T02:29:03.329Z,100633.06
2018-08-18T02:39:07.060Z,100641.36
2018-08-18T02:49:10.096Z,100646.97
2018-08-18T02:59:12.596Z,100648.11
2018-08-18T03:09:15.044Z,100629.36
2018-08-18T03:19:17.581Z,100613.03
2018-08-18T03:29:21.338Z,100637.27
2018-08-18T03:39:29.765Z,100645.09
2018-08-18T03:49:32.417Z,100608.60
2018-08-18T03:59:34.838Z,100622.34
2018-08-18T04:09:38.515Z,100616.70
2018-08-18T04:19:40.953Z,100620.58
2018-08-18T04:29:43.480Z,100639.05
2018-08-18T04:39:46.308Z,100644.41
2018-08-18T04:49:48.782Z,100660.77
2018-08-18T04:59:51.244Z,100674.28
2018-08-18T05:09:54.020Z,100690.35
2018-08-18T05:20:05.025Z,100697.53
2018-08-18T05:30:07.684Z,100702.19
2018-08-18T05:40:10.147Z,100696.13
2018-08-18T05:50:12.689Z,100712.84
2018-08-18T06:00:21.745Z,100737.23
2018-08-18T06:10:25.162Z,100748.31
2018-08-18T06:20:27.693Z,100761.31
2018-08-18T06:30:30.220Z,100769.68
2018-08-18T06:40:33.218Z,100776.21
2018-08-18T06:50:41.802Z,100777.17
2018-08-18T07:00:44.818Z,100790.20
2018-08-18T07:10:47.195Z,100789.22
2018-08-18T07:20:51.755Z,100793.62
2018-08-18T07:30:56.425Z,100798.27
2018-08-18T07:40:58.976Z,100810.66
2018-08-18T07:51:01.693Z,100812.47
2018-08-18T08:01:04.828Z,100831.89
2018-08-18T08:11:15.917Z,100836.38
2018-08-18T08:21:18.411Z,100837.52
2018-08-18T08:31:20.911Z,100851.92
2018-08-18T08:41:23.930Z,100854.20
2018-08-18T08:51:26.613Z,100848.55
2018-08-18T09:01:29.304Z,100846.87
2018-08-18T09:11:31.670Z,100841.17
2018-08-18T09:21:39.724Z,100842.15
2018-08-18T09:31:43.142Z,100840.19
2018-08-18T09:41:45.977Z,100843.25
2018-08-18T09:51:48.568Z,100836.80
2018-08-18T10:01:51.060Z,100838.16
2018-08-18T10:11:53.868Z,100835.62
2018-08-18T10:21:56.322Z,100836.45
2018-08-18T10:31:59.408Z,100831.20
2018-08-18T10:42:04.376Z,100828.36
2018-08-18T10:52:12.348Z,100822.80
2018-08-18T11:02:19.384Z,100818.33
2018-08-18T11:12:21.801Z,100815.00
2018-08-18T11:22:44.871Z,100816.98
2018-08-18T11:32:47.390Z,100809.37
2018-08-18T11:42:50.115Z,100802.64
2018-08-18T11:52:52.630Z,100788.88
2018-08-18T12:02:55.349Z,100798.47
2018-08-18T12:12:57.829Z,100793.30
2018-08-18T12:23:01.026Z,100785.13
2018-08-18T12:33:09.138Z,100785.95
2018-08-18T12:43:11.560Z,100777.66
2018-08-18T12:53:14.274Z,100774.89
2018-08-18T13:03:17.334Z,100761.87
2018-08-18T13:13:19.817Z,100757.20
2018-08-18T13:23:27.518Z,100747.95
2018-08-18T13:33:34.283Z,100744.91
2018-08-18T13:43:44.538Z,100735.07
2018-08-18T13:53:53.061Z,100722.19
2018-08-18T14:03:55.497Z,100715.37
2018-08-18T14:13:59.289Z,100705.33
2018-08-18T14:24:01.612Z,100695.47
2018-08-18T14:34:04.171Z,100685.05
2018-08-18T14:44:06.733Z,100680.86
2018-08-18T14:54:09.216Z,100672.95
2018-08-18T15:04:11.747Z,100673.16
2018-08-18T15:14:20.400Z,100669.14
2018-08-18T15:24:23.701Z,100662.00
2018-08-18T15:34:26.681Z,100661.80
2018-08-18T15:44:29.217Z,100662.38
2018-08-18T15:54:31.715Z,100662.19
2018-08-18T16:04:34.054Z,100662.17
2018-08-18T16:14:36.617Z,100660.55
2018-08-18T16:24:43.206Z,100656.56
2018-08-18T16:34:46.767Z,100651.27
2018-08-18T16:44:49.306Z,100648.65
2018-08-18T16:54:51.766Z,100661.89
2018-08-18T17:04:54.503Z,100666.04
2018-08-18T17:14:56.842Z,100670.30
2018-08-18T17:24:59.390Z,100681.02
2018-08-18T17:35:01.970Z,100680.44
2018-08-18T17:45:04.433Z,100688.91
2018-08-18T17:55:09.849Z,100706.12
2018-08-18T18:05:18.095Z,100708.65
2018-08-18T18:15:26.272Z,100720.98
2018-08-18T18:25:28.797Z,100730.47
2018-08-18T18:35:31.207Z,100744.69
2018-08-18T18:45:33.781Z,100751.57
2018-08-18T18:55:41.526Z,100753.33
2018-08-18T19:05:46.427Z,100761.36
2018-08-18T19:15:48.978Z,100773.17
2018-08-18T19:25:51.921Z,100778.16
2018-08-18T19:35:54.747Z,100789.45
2018-08-18T19:45:57.466Z,100788.63
2018-08-18T19:56:00.978Z,100793.47
2018-08-18T20:06:07.701Z,100807.01
2018-08-18T20:16:10.793Z,100803.38
2018-08-18T20:26:14.222Z,100805.69
2018-08-18T20:36:17.387Z,100819.33
2018-08-18T20:46:20.568Z,100819.67
2018-08-18T20:56:24.491Z,100828.64
2018-08-18T21:06:27.696Z,100832.66
2018-08-18T21:16:32.236Z,100839.64
2018-08-18T21:26:35.396Z,100844.13
2018-08-18T21:36:38.554Z,100853.36
2018-08-18T21:46:42.470Z,100862.72
2018-08-18T21:56:45.663Z,100859.78
2018-08-18T22:06:49.125Z,100849.83
2018-08-18T22:16:55.323Z,100848.61
2018-08-18T22:26:59.661Z,100838.65
2018-08-18T22:37:09.425Z,100838.65
2018-08-18T22:47:12.527Z,100844.59
2018-08-18T22:57:15.700Z,100858.92
2018-08-18T23:07:19.077Z,100855.55
2018-08-18T23:17:22.898Z,100851.67
2018-08-18T23:27:28.032Z,100863.92
2018-08-18T23:37:31.037Z,100857.71
2018-08-18T23:47:34.381Z,100858.57
2018-08-18T23:57:39.972Z,100849.21
